createdAt,value
2017-09-05T00:00:03.488Z,76.6
2017-09-05T00:01:04.970Z,76.9
2017-09-05T00:02:06.352Z,77.4
2017-09-05T00:03:07.762Z,77.3
2017-09-05T00:04:09.128Z,77.5
2017-09-05T00:05:10.502Z,77.7
2017-09-05T00:06:11.955Z,77.0
2017-09-05T00:07:13.337Z,77.0
2017-09-05T00:08:14.752Z,76.8
2017-09-05T00:09:16.114Z,76.4
2017-09-05T00:10:17.500Z,76.8
2017-09-05T00:11:18.870Z,76.5
2017-09-05T00:12:20.259Z,76.8
2017-09-05T00:14:02.706Z,76.4
2017-09-05T00:15:04.080Z,76.8
2017-09-05T00:16:05.457Z,76.4
2017-09-05T00:17:06.832Z,76.5
2017-09-05T00:18:08.208Z,76.7
2017-09-05T00:19:09.582Z,76.8
2017-09-05T00:20:10.985Z,76.8
2017-09-05T00:21:12.347Z,76.6
2017-09-05T00:22:13.719Z,76.6
2017-09-05T00:23:15.089Z,76.4
2017-09-05T00:24:16.463Z,76.8
2017-09-05T00:25:17.845Z,77.3
2017-09-05T00:26:19.221Z,76.9
2017-09-05T00:27:20.597Z,76.9
2017-09-05T00:28:21.965Z,77.0
2017-09-05T00:30:04.322Z,76.8
2017-09-05T00:31:05.693Z,76.8
2017-09-05T00:32:07.067Z,77.0
2017-09-05T00:33:08.509Z,77.0
2017-09-05T00:34:09.878Z,76.6
2017-09-05T00:35:11.255Z,76.8
2017-09-05T00:36:12.630Z,76.7
2017-09-05T00:37:14.008Z,76.5
2017-09-05T00:38:15.382Z,76.8
2017-09-05T00:39:16.753Z,76.8
2017-09-05T00:40:18.126Z,76.8
2017-09-05T00:41:19.499Z,76.6
2017-09-05T00:42:20.875Z,76.8
2017-09-05T00:43:22.249Z,76.7
2017-09-05T00:44:23.623Z,76.6
2017-09-05T00:46:05.997Z,76.3
2017-09-05T00:47:07.365Z,76.3
2017-09-05T00:48:08.759Z,76.7
2017-09-05T00:49:10.131Z,76.9
2017-09-05T00:50:11.505Z,76.8
2017-09-05T00:51:12.916Z,76.8
2017-09-05T00:52:14.303Z,76.8
2017-09-05T00:53:15.672Z,77.0
2017-09-05T00:54:17.062Z,76.6
2017-09-05T00:55:18.436Z,76.8
2017-09-05T00:56:19.808Z,77.1
2017-09-05T00:57:21.179Z,76.6
2017-09-05T00:58:22.551Z,76.9
2017-09-05T00:59:23.924Z,76.6
2017-09-05T01:00:25.308Z,77.0
2017-09-05T01:01:26.684Z,76.8
2017-09-05T01:02:28.123Z,76.8
2017-09-05T01:03:29.504Z,76.8
2017-09-05T01:04:30.905Z,76.7
2017-09-05T01:05:32.326Z,77.7
2017-09-05T01:06:33.786Z,77.3
2017-09-05T01:07:35.163Z,76.9
2017-09-05T01:08:36.543Z,76.9
2017-09-05T01:09:37.936Z,76.6
2017-09-05T01:10:39.640Z,76.6
2017-09-05T01:11:41.237Z,76.8
2017-09-05T01:12:42.970Z,76.8
2017-09-05T01:13:44.680Z,77.1
2017-09-05T01:14:46.329Z,77.2
2017-09-05T01:15:48.134Z,76.8
2017-09-05T01:16:49.525Z,76.9
2017-09-05T01:18:32.060Z,76.7
2017-09-05T01:19:33.774Z,76.7
2017-09-05T01:20:35.152Z,76.7
2017-09-05T01:21:36.526Z,76.6
2017-09-05T01:22:37.902Z,76.8
2017-09-05T01:23:39.275Z,76.5
2017-09-05T01:24:40.662Z,77.0
2017-09-05T01:25:42.093Z,77.3
2017-09-05T01:26:43.466Z,77.1
2017-09-05T01:27:44.893Z,77.1
2017-09-05T01:28:46.302Z,76.8
2017-09-05T01:29:47.723Z,76.8
2017-09-05T01:30:49.101Z,76.7
2017-09-05T01:31:50.472Z,76.6
2017-09-05T01:32:51.843Z,76.4
2017-09-05T01:34:34.207Z,76.3
2017-09-05T01:35:35.576Z,76.7
2017-09-05T01:36:36.958Z,76.5
2017-09-05T01:37:38.374Z,76.1
2017-09-05T01:38:39.744Z,76.7
2017-09-05T01:39:41.120Z,76.3
2017-09-05T01:40:42.489Z,76.3
2017-09-05T01:41:43.877Z,76.2
2017-09-05T01:42:45.267Z,76.8
2017-09-05T01:43:46.689Z,76.8
2017-09-05T01:44:48.115Z,77.0
2017-09-05T01:45:49.491Z,77.6
2017-09-05T01:46:50.867Z,77.6
2017-09-05T01:47:52.238Z,77.0
2017-09-05T01:48:53.630Z,77.0
2017-09-05T01:49:55.006Z,77.4
2017-09-05T01:51:37.434Z,77.0
2017-09-05T01:52:38.854Z,77.2
2017-09-05T01:53:40.195Z,76.5
2017-09-05T01:54:41.566Z,77.0
2017-09-05T01:55:42.944Z,76.7
2017-09-05T01:56:44.319Z,77.1
2017-09-05T01:57:45.724Z,77.0
2017-09-05T01:58:47.105Z,76.5
2017-09-05T01:59:48.489Z,76.8
2017-09-05T02:00:49.863Z,76.8
2017-09-05T02:01:51.236Z,76.8
2017-09-05T02:02:52.669Z,76.8
2017-09-05T02:03:54.057Z,77.2
2017-09-05T02:04:55.444Z,77.6
2017-09-05T02:05:56.808Z,77.6
2017-09-05T02:06:58.196Z,77.5
2017-09-05T02:07:59.565Z,77.9
2017-09-05T02:09:00.947Z,78.0
2017-09-05T02:10:02.329Z,77.6
2017-09-05T02:11:03.700Z,78.0
2017-09-05T02:12:05.072Z,78.1
2017-09-05T02:13:06.450Z,78.2
2017-09-05T02:14:07.866Z,78.1
2017-09-05T02:15:09.302Z,77.9
2017-09-05T02:16:10.674Z,78.1
2017-09-05T02:17:12.060Z,77.9
2017-09-05T02:18:13.452Z,78.1
2017-09-05T02:19:14.826Z,77.9
2017-09-05T02:20:16.202Z,78.1
2017-09-05T02:21:17.616Z,78.4
2017-09-05T02:22:19.081Z,77.7
2017-09-05T02:23:20.492Z,77.5
2017-09-05T02:24:21.906Z,77.5
2017-09-05T02:25:23.305Z,77.5
2017-09-05T02:26:24.683Z,77.5
2017-09-05T02:28:07.055Z,77.8
2017-09-05T02:29:08.427Z,77.8
2017-09-05T02:30:09.806Z,77.8
2017-09-05T02:31:11.186Z,77.7
2017-09-05T02:32:12.568Z,77.9
2017-09-05T02:33:13.947Z,77.7
2017-09-05T02:34:15.320Z,78.0
2017-09-05T02:35:16.709Z,77.9
2017-09-05T02:36:18.094Z,78.5
2017-09-05T02:37:19.469Z,78.5
2017-09-05T02:38:20.837Z,78.6
2017-09-05T02:39:22.284Z,78.8
2017-09-05T02:40:23.674Z,78.7
2017-09-05T02:41:25.106Z,78.5
2017-09-05T02:42:26.524Z,78.3
2017-09-05T02:43:27.928Z,78.3
2017-09-05T02:44:29.456Z,78.1
2017-09-05T02:45:30.998Z,78.6
2017-09-05T02:46:32.375Z,78.5
2017-09-05T02:47:33.746Z,78.2
2017-09-05T02:48:35.124Z,78.3
2017-09-05T02:49:36.501Z,78.5
2017-09-05T02:50:37.869Z,78.6
2017-09-05T02:51:39.239Z,78.4
2017-09-05T02:52:40.618Z,78.6
2017-09-05T02:53:41.998Z,78.7
2017-09-05T02:54:43.376Z,78.8
2017-09-05T02:55:44.749Z,78.6
2017-09-05T02:56:46.126Z,78.5
2017-09-05T02:57:47.500Z,78.5
2017-09-05T02:58:48.871Z,78.3
2017-09-05T03:00:31.315Z,78.7
2017-09-05T03:01:32.659Z,78.7
2017-09-05T03:02:34.029Z,78.4
2017-09-05T03:03:35.443Z,78.5
2017-09-05T03:04:36.788Z,78.1
2017-09-05T03:05:38.166Z,78.3
2017-09-05T03:06:39.543Z,78.7
2017-09-05T03:07:40.912Z,79.0
2017-09-05T03:08:42.286Z,79.2
2017-09-05T03:09:43.656Z,78.8
2017-09-05T03:10:45.031Z,79.0
2017-09-05T03:11:46.410Z,78.5
2017-09-05T03:12:47.777Z,78.2
2017-09-05T03:13:49.152Z,79.1
2017-09-05T03:14:50.526Z,79.2
2017-09-05T03:15:51.897Z,78.8
2017-09-05T03:16:53.273Z,79.0
2017-09-05T03:17:54.653Z,79.1
2017-09-05T03:18:56.025Z,79.0
2017-09-05T03:19:57.454Z,78.7
2017-09-05T03:20:58.927Z,79.0
2017-09-05T03:22:00.463Z,78.7
2017-09-05T03:23:02.092Z,78.6
2017-09-05T03:24:03.743Z,79.0
2017-09-05T03:25:05.357Z,78.8
2017-09-05T03:26:07.065Z,79.2
2017-09-05T03:27:08.492Z,78.8
2017-09-05T03:28:09.861Z,79.1
2017-09-05T03:29:11.246Z,78.9
2017-09-05T03:30:12.627Z,79.6
2017-09-05T03:31:14.000Z,80.0
2017-09-05T03:32:15.373Z,79.9
2017-09-05T03:33:16.770Z,80.0
2017-09-05T03:34:18.141Z,79.9
2017-09-05T03:35:19.523Z,80.2
2017-09-05T03:36:20.896Z,79.8
2017-09-05T03:37:22.267Z,79.5
2017-09-05T03:38:23.639Z,79.9
2017-09-05T03:39:25.022Z,79.7
2017-09-05T03:40:26.385Z,79.6
2017-09-05T03:41:27.763Z,79.8
2017-09-05T03:42:29.167Z,80.0
2017-09-05T03:43:30.515Z,80.1
2017-09-05T03:44:31.879Z,80.1
2017-09-05T03:45:33.430Z,80.1
2017-09-05T03:46:35.063Z,80.1
2017-09-05T03:47:36.712Z,80.1
2017-09-05T03:49:19.100Z,80.3
2017-09-05T03:50:20.477Z,81.2
2017-09-05T03:51:21.919Z,81.1
2017-09-05T03:52:23.288Z,80.7
2017-09-05T03:53:24.663Z,80.6
2017-09-05T03:54:26.164Z,80.7
2017-09-05T03:55:27.548Z,80.7
2017-09-05T03:56:28.924Z,80.6
2017-09-05T03:57:30.295Z,80.9
2017-09-05T03:58:31.680Z,81.2
2017-09-05T03:59:33.053Z,81.2
2017-09-05T04:00:34.427Z,81.1
2017-09-05T04:01:35.800Z,81.9
2017-09-05T04:02:37.173Z,81.5
2017-09-05T04:03:38.551Z,81.7
2017-09-05T04:04:39.923Z,81.5
2017-09-05T04:05:41.321Z,81.5
2017-09-05T04:06:42.692Z,81.3
2017-09-05T04:07:44.070Z,81.5
2017-09-05T04:08:45.438Z,81.4
2017-09-05T04:09:46.813Z,81.5
2017-09-05T04:10:48.187Z,81.1
2017-09-05T04:11:49.562Z,81.0
2017-09-05T04:12:50.935Z,80.9
2017-09-05T04:13:52.328Z,80.9
2017-09-05T04:14:53.708Z,81.7
2017-09-05T04:15:55.083Z,80.9
2017-09-05T04:16:56.458Z,81.3
2017-09-05T04:17:57.830Z,81.3
2017-09-05T04:19:40.211Z,81.7
2017-09-05T04:20:41.933Z,81.0
2017-09-05T04:21:43.314Z,81.5
2017-09-05T04:22:44.694Z,82.2
2017-09-05T04:23:46.060Z,82.2
2017-09-05T04:24:47.432Z,80.9
2017-09-05T04:25:48.803Z,81.4
2017-09-05T04:26:50.189Z,81.3
2017-09-05T04:27:51.559Z,81.0
2017-09-05T04:28:52.931Z,81.7
2017-09-05T04:29:54.309Z,80.7
2017-09-05T04:30:55.682Z,81.5
2017-09-05T04:31:57.060Z,81.0
2017-09-05T04:32:58.435Z,81.2
2017-09-05T04:33:59.810Z,81.0
2017-09-05T04:35:42.182Z,81.0
2017-09-05T04:36:43.556Z,80.5
2017-09-05T04:37:44.931Z,80.4
2017-09-05T04:38:46.356Z,80.5
2017-09-05T04:39:47.688Z,80.4
2017-09-05T04:40:49.063Z,80.3
2017-09-05T04:41:50.510Z,80.1
2017-09-05T04:42:51.904Z,80.1
2017-09-05T04:43:53.273Z,80.3
2017-09-05T04:44:54.642Z,80.6
2017-09-05T04:45:56.024Z,80.6
2017-09-05T04:46:57.398Z,81.0
2017-09-05T04:47:58.775Z,81.0
2017-09-05T04:49:00.149Z,81.0
2017-09-05T04:50:01.529Z,80.7
2017-09-05T04:51:02.901Z,81.4
2017-09-05T04:52:04.279Z,81.7
2017-09-05T04:53:05.655Z,81.3
2017-09-05T04:54:07.027Z,82.0
2017-09-05T04:55:08.416Z,81.4
2017-09-05T04:56:09.792Z,81.9
2017-09-05T04:57:11.325Z,81.6
2017-09-05T04:58:12.708Z,81.5
2017-09-05T04:59:14.108Z,81.5
2017-09-05T05:00:15.488Z,81.8
2017-09-05T05:01:16.927Z,82.2
2017-09-05T05:02:18.385Z,82.4
2017-09-05T05:03:19.800Z,82.2
2017-09-05T05:04:21.179Z,82.9
2017-09-05T05:05:22.576Z,82.7
2017-09-05T05:06:23.946Z,83.3
2017-09-05T05:08:06.324Z,82.9
2017-09-05T05:09:07.696Z,83.1
2017-09-05T05:10:09.083Z,83.6
2017-09-05T05:11:10.458Z,83.5
2017-09-05T05:12:11.843Z,83.3
2017-09-05T05:13:13.234Z,83.2
2017-09-05T05:14:14.614Z,83.5
2017-09-05T05:15:15.990Z,83.5
2017-09-05T05:16:17.407Z,83.6
2017-09-05T05:17:18.790Z,84.0
2017-09-05T05:18:20.173Z,84.3
2017-09-05T05:19:21.557Z,84.5
2017-09-05T05:20:22.939Z,84.5
2017-09-05T05:21:24.330Z,83.8
2017-09-05T05:22:25.705Z,84.3
2017-09-05T05:24:08.061Z,84.5
2017-09-05T05:25:09.448Z,83.8
2017-09-05T05:26:10.875Z,83.5
2017-09-05T05:27:12.256Z,84.0
2017-09-05T05:28:13.837Z,83.6
2017-09-05T05:29:15.231Z,83.7
2017-09-05T05:30:16.615Z,83.8
2017-09-05T05:31:18.001Z,84.5
2017-09-05T05:32:19.380Z,83.8
2017-09-05T05:33:20.751Z,83.6
2017-09-05T05:34:22.136Z,84.1
2017-09-05T05:35:23.517Z,83.9
2017-09-05T05:36:24.894Z,82.9
2017-09-05T05:37:26.286Z,83.9
2017-09-05T05:38:27.663Z,83.3
2017-09-05T05:39:29.038Z,83.1
2017-09-05T05:40:30.443Z,83.1
2017-09-05T05:41:31.824Z,82.6
2017-09-05T05:42:33.205Z,82.9
2017-09-05T05:43:34.583Z,82.8
2017-09-05T05:44:35.966Z,82.3
2017-09-05T05:45:37.338Z,82.4
2017-09-05T05:46:38.778Z,81.8
2017-09-05T05:47:40.171Z,81.3
2017-09-05T05:48:41.591Z,81.2
2017-09-05T05:49:43.047Z,81.7
2017-09-05T05:50:44.474Z,81.2
2017-09-05T05:51:45.848Z,81.5
2017-09-05T05:52:47.227Z,80.7
2017-09-05T05:53:48.612Z,81.0
2017-09-05T05:54:50.075Z,80.8
2017-09-05T05:56:32.451Z,81.0
2017-09-05T05:57:33.859Z,80.5
2017-09-05T05:58:35.237Z,80.4
2017-09-05T05:59:36.893Z,80.5
2017-09-05T06:00:38.299Z,80.4
2017-09-05T06:01:39.684Z,80.4
2017-09-05T06:02:41.051Z,79.9
2017-09-05T06:03:42.448Z,80.2
2017-09-05T06:04:43.857Z,79.6
2017-09-05T06:05:45.233Z,79.8
2017-09-05T06:06:46.612Z,79.9
2017-09-05T06:07:47.997Z,79.4
2017-09-05T06:08:49.376Z,79.2
2017-09-05T06:09:50.772Z,80.0
2017-09-05T06:10:52.165Z,79.7
2017-09-05T06:12:35.710Z,79.0
2017-09-05T06:13:37.049Z,78.4
2017-09-05T06:14:38.449Z,78.6
2017-09-05T06:15:39.849Z,79.1
2017-09-05T06:16:41.229Z,78.7
2017-09-05T06:17:42.608Z,78.3
2017-09-05T06:18:43.999Z,78.2
2017-09-05T06:19:45.384Z,78.6
2017-09-05T06:20:46.762Z,78.5
2017-09-05T06:21:48.140Z,78.7
2017-09-05T06:22:49.521Z,78.4
2017-09-05T06:23:50.904Z,78.7
2017-09-05T06:24:52.284Z,78.4
2017-09-05T06:25:53.675Z,78.4
2017-09-05T06:26:55.128Z,78.6
2017-09-05T06:27:56.519Z,78.3
2017-09-05T06:28:57.930Z,79.1
2017-09-05T06:29:59.322Z,79.3
2017-09-05T06:31:00.702Z,79.4
2017-09-05T06:32:02.100Z,79.0
2017-09-05T06:33:03.488Z,78.2
2017-09-05T06:34:04.871Z,76.2
2017-09-05T06:35:06.254Z,76.0
2017-09-05T06:36:07.636Z,76.5
2017-09-05T06:37:09.022Z,76.6
2017-09-05T06:38:10.398Z,76.4
2017-09-05T06:39:11.867Z,76.4
2017-09-05T06:40:13.289Z,76.5
2017-09-05T06:41:14.687Z,76.6
2017-09-05T06:42:16.144Z,76.9
2017-09-05T06:43:17.529Z,76.9
2017-09-05T06:44:59.897Z,77.3
2017-09-05T06:46:01.272Z,76.7
2017-09-05T06:47:02.649Z,76.5
2017-09-05T06:48:04.031Z,76.4
2017-09-05T06:49:05.420Z,76.3
2017-09-05T06:50:06.803Z,76.2
2017-09-05T06:51:08.191Z,75.6
2017-09-05T06:52:09.566Z,74.4
2017-09-05T06:53:10.990Z,74.4
2017-09-05T06:54:12.452Z,74.0
2017-09-05T06:55:13.914Z,74.3
2017-09-05T06:56:15.313Z,74.3
2017-09-05T06:57:16.723Z,74.2
2017-09-05T06:58:18.144Z,74.0
2017-09-05T06:59:19.560Z,73.4
2017-09-05T07:01:00.929Z,73.9
2017-09-05T07:02:02.373Z,74.3
2017-09-05T07:03:03.786Z,74.2
2017-09-05T07:04:05.167Z,74.3
2017-09-05T07:05:06.551Z,74.3
2017-09-05T07:06:07.931Z,73.6
2017-09-05T07:07:09.319Z,74.3
2017-09-05T07:08:10.701Z,74.5
2017-09-05T07:09:53.077Z,73.4
2017-09-05T07:10:54.460Z,73.2
2017-09-05T07:11:55.844Z,73.8
2017-09-05T07:12:57.230Z,73.8
2017-09-05T07:13:58.613Z,72.8
2017-09-05T07:15:00.006Z,73.4
2017-09-05T07:16:01.390Z,73.7
2017-09-05T07:17:02.774Z,71.8
2017-09-05T07:18:04.155Z,71.9
2017-09-05T07:19:05.568Z,72.1
2017-09-05T07:20:06.948Z,72.9
2017-09-05T07:21:08.337Z,72.9
2017-09-05T07:22:09.712Z,72.9
2017-09-05T07:23:11.097Z,72.6
2017-09-05T07:24:12.474Z,72.7
2017-09-05T07:25:13.883Z,72.9
2017-09-05T07:26:15.266Z,71.9
2017-09-05T07:27:16.651Z,72.2
2017-09-05T07:28:18.035Z,72.1
2017-09-05T07:29:19.479Z,72.1
2017-09-05T07:30:20.869Z,71.9
2017-09-05T07:31:22.284Z,71.9
2017-09-05T07:32:23.703Z,71.9
2017-09-05T07:33:25.083Z,72.2
2017-09-05T07:34:26.468Z,71.8
2017-09-05T07:35:27.849Z,71.9
2017-09-05T07:36:29.264Z,72.1
2017-09-05T07:37:30.682Z,71.7
2017-09-05T07:38:32.082Z,71.5
2017-09-05T07:39:33.520Z,71.3
2017-09-05T07:40:34.941Z,71.9
2017-09-05T07:42:17.317Z,72.0
2017-09-05T07:43:18.700Z,71.1
2017-09-05T07:44:20.081Z,71.3
2017-09-05T07:45:21.468Z,71.2
2017-09-05T07:46:22.853Z,71.7
2017-09-05T07:47:24.249Z,70.9
2017-09-05T07:48:25.703Z,71.4
2017-09-05T07:49:27.099Z,71.5
2017-09-05T07:50:28.481Z,71.0
2017-09-05T07:51:29.864Z,69.9
2017-09-05T07:52:31.246Z,70.0
2017-09-05T07:53:32.630Z,69.9
2017-09-05T07:54:34.025Z,70.5
2017-09-05T07:55:35.419Z,69.9
2017-09-05T07:56:36.805Z,69.5
2017-09-05T07:57:38.189Z,69.1
2017-09-05T07:58:39.571Z,69.1
2017-09-05T07:59:40.959Z,68.7
2017-09-05T08:00:42.341Z,69.4
2017-09-05T08:01:43.743Z,69.5
2017-09-05T08:02:45.118Z,70.0
2017-09-05T08:03:46.506Z,70.8
2017-09-05T08:04:47.890Z,71.5
2017-09-05T08:05:49.338Z,69.5
2017-09-05T08:06:50.721Z,70.2
2017-09-05T08:07:52.179Z,70.2
2017-09-05T08:08:53.578Z,69.3
2017-09-05T08:09:55.040Z,69.5
2017-09-05T08:10:56.498Z,70.0
2017-09-05T08:11:57.878Z,69.5
2017-09-05T08:12:59.260Z,69.8
2017-09-05T08:14:00.683Z,69.1
2017-09-05T08:15:02.064Z,69.3
2017-09-05T08:16:03.452Z,68.8
2017-09-05T08:17:04.847Z,69.0
2017-09-05T08:18:06.254Z,68.1
2017-09-05T08:19:07.628Z,68.6
2017-09-05T08:20:09.029Z,68.3
2017-09-05T08:21:10.418Z,68.0
2017-09-05T08:22:11.796Z,68.5
2017-09-05T08:23:13.181Z,67.2
2017-09-05T08:24:14.567Z,68.6
2017-09-05T08:25:15.959Z,67.9
2017-09-05T08:26:17.340Z,67.6
2017-09-05T08:27:18.731Z,67.5
2017-09-05T08:28:20.109Z,67.7
2017-09-05T08:29:21.522Z,67.3
2017-09-05T08:30:22.903Z,67.7
2017-09-05T08:31:24.360Z,66.9
2017-09-05T08:32:25.751Z,67.5
2017-09-05T08:33:27.175Z,67.3
2017-09-05T08:34:28.560Z,67.3
2017-09-05T08:35:29.951Z,66.1
2017-09-05T08:36:31.379Z,65.5
2017-09-05T08:37:33.235Z,66.1
2017-09-05T08:38:35.018Z,66.8
2017-09-05T08:39:36.738Z,66.7
2017-09-05T08:40:38.337Z,67.2
2017-09-05T08:41:40.005Z,67.5
2017-09-05T08:42:41.482Z,66.7
2017-09-05T08:43:42.855Z,67.2
2017-09-05T08:44:44.272Z,66.7
2017-09-05T08:45:45.665Z,66.7
2017-09-05T08:46:47.110Z,66.5
2017-09-05T08:47:48.505Z,66.4
2017-09-05T08:48:49.915Z,66.9
2017-09-05T08:49:51.302Z,66.0
2017-09-05T08:50:52.701Z,66.6
2017-09-05T08:51:54.114Z,65.9
2017-09-05T08:52:55.556Z,66.1
2017-09-05T08:53:56.952Z,66.0
2017-09-05T08:54:58.342Z,65.6
2017-09-05T08:55:59.730Z,63.9
2017-09-05T08:57:01.128Z,62.5
2017-09-05T08:58:02.512Z,62.4
2017-09-05T08:59:03.914Z,61.5
2017-09-05T09:00:05.293Z,60.9
2017-09-05T09:01:06.680Z,61.1
2017-09-05T09:02:49.197Z,61.3
2017-09-05T09:03:50.637Z,62.3
2017-09-05T09:04:52.037Z,61.4
2017-09-05T09:05:53.445Z,62.2
2017-09-05T09:06:54.862Z,62.6
2017-09-05T09:07:56.248Z,62.1
2017-09-05T09:08:57.634Z,61.6
2017-09-05T09:09:59.023Z,61.5
2017-09-05T09:11:00.410Z,60.9
2017-09-05T09:12:01.790Z,59.0
2017-09-05T09:13:03.180Z,58.0
2017-09-05T09:14:04.568Z,56.7
2017-09-05T09:15:05.964Z,55.8
2017-09-05T09:16:07.353Z,55.5
2017-09-05T09:17:08.790Z,54.9
2017-09-05T09:18:10.198Z,55.2
2017-09-05T09:19:11.588Z,56.2
2017-09-05T09:20:12.983Z,55.1
2017-09-05T09:21:14.369Z,54.6
2017-09-05T09:22:15.759Z,54.6
2017-09-05T09:23:17.147Z,54.2
2017-09-05T09:24:18.539Z,54.8
2017-09-05T09:25:19.942Z,55.2
2017-09-05T09:26:21.331Z,54.1
2017-09-05T09:27:22.721Z,54.4
2017-09-05T09:28:24.112Z,52.3
2017-09-05T09:29:25.503Z,52.8
2017-09-05T09:30:26.900Z,51.6
2017-09-05T09:31:28.293Z,51.7
2017-09-05T09:32:29.708Z,51.9
2017-09-05T09:34:11.114Z,52.8
2017-09-05T09:35:12.502Z,52.9
2017-09-05T09:36:35.526Z,52.9
2017-09-05T09:37:36.905Z,51.7
2017-09-05T09:38:38.305Z,51.9
2017-09-05T09:39:39.710Z,51.8
2017-09-05T09:40:41.099Z,50.9
2017-09-05T09:41:42.497Z,49.8
2017-09-05T09:42:43.886Z,49.3
2017-09-05T09:43:45.308Z,49.0
2017-09-05T09:44:46.695Z,48.2
2017-09-05T09:45:48.080Z,49.6
2017-09-05T09:46:49.474Z,49.7
2017-09-05T09:47:50.858Z,49.7
2017-09-05T09:48:52.249Z,48.9
2017-09-05T09:49:53.648Z,48.4
2017-09-05T09:50:55.047Z,47.9
2017-09-05T09:51:56.472Z,47.4
2017-09-05T09:52:57.873Z,49.2
2017-09-05T09:53:59.284Z,49.2
2017-09-05T09:55:00.678Z,47.6
2017-09-05T09:56:02.082Z,47.9
2017-09-05T09:57:03.500Z,47.7
2017-09-05T09:58:04.879Z,46.3
2017-09-05T09:59:06.269Z,46.2
2017-09-05T10:00:07.665Z,44.8
2017-09-05T10:01:09.073Z,44.9
2017-09-05T10:02:10.456Z,44.5
2017-09-05T10:03:11.875Z,43.6
2017-09-05T10:04:13.274Z,42.7
2017-09-05T10:05:14.702Z,43.5
2017-09-05T10:06:57.144Z,43.3
2017-09-05T10:07:58.496Z,42.7
2017-09-05T10:08:59.903Z,41.0
2017-09-05T10:10:01.298Z,41.9
2017-09-05T10:11:02.685Z,41.2
2017-09-05T10:12:04.096Z,41.3
2017-09-05T10:13:05.503Z,41.9
2017-09-05T10:14:06.904Z,40.8
2017-09-05T10:15:08.292Z,40.1
2017-09-05T10:16:09.698Z,40.1
2017-09-05T10:17:11.092Z,40.3
2017-09-05T10:18:12.514Z,41.6
2017-09-05T10:19:14.022Z,41.4
2017-09-05T10:20:15.402Z,40.9
2017-09-05T10:21:16.797Z,40.4
2017-09-05T10:22:58.205Z,42.5
2017-09-05T10:23:59.605Z,42.9
2017-09-05T10:25:23.607Z,42.7
2017-09-05T10:26:25.025Z,41.4
2017-09-05T10:27:26.404Z,41.8
2017-09-05T10:28:27.799Z,41.1
2017-09-05T10:29:29.203Z,42.1
2017-09-05T10:30:30.606Z,42.5
2017-09-05T10:31:32.002Z,41.3
2017-09-05T10:32:33.414Z,41.3
2017-09-05T10:33:34.794Z,41.4
2017-09-05T10:34:36.188Z,41.4
2017-09-05T10:35:37.583Z,43.1
2017-09-05T10:36:38.983Z,44.2
2017-09-05T10:37:40.384Z,45.5
2017-09-05T10:38:41.777Z,45.6
2017-09-05T10:39:43.174Z,46.8
2017-09-05T10:40:44.563Z,47.3
2017-09-05T10:41:45.955Z,47.6
2017-09-05T10:42:47.358Z,46.7
2017-09-05T10:43:48.749Z,45.8
2017-09-05T10:44:50.139Z,47.7
2017-09-05T10:45:51.542Z,47.7
2017-09-05T10:46:52.936Z,47.1
2017-09-05T10:47:54.325Z,47.9
2017-09-05T10:48:55.721Z,47.4
2017-09-05T10:49:57.109Z,47.7
2017-09-05T10:50:58.502Z,47.7
2017-09-05T10:51:59.891Z,48.8
2017-09-05T10:53:01.289Z,47.6
2017-09-05T10:54:02.696Z,48.0
2017-09-05T10:55:45.070Z,48.8
2017-09-05T10:56:46.456Z,48.3
2017-09-05T10:57:47.850Z,48.4
2017-09-05T10:58:49.253Z,46.7
2017-09-05T10:59:50.648Z,46.8
2017-09-05T11:00:52.043Z,46.8
2017-09-05T11:01:53.430Z,45.0
2017-09-05T11:02:54.821Z,45.6
2017-09-05T11:03:56.215Z,45.0
2017-09-05T11:04:57.601Z,45.2
2017-09-05T11:05:59.008Z,45.2
2017-09-05T11:07:00.393Z,45.0
2017-09-05T11:08:01.785Z,45.3
2017-09-05T11:09:03.185Z,46.4
2017-09-05T11:10:04.590Z,46.1
2017-09-05T11:11:47.975Z,46.4
2017-09-05T11:12:49.366Z,46.1
2017-09-05T11:13:50.763Z,45.0
2017-09-05T11:14:52.157Z,43.9
2017-09-05T11:15:53.578Z,43.6
2017-09-05T11:16:54.969Z,42.2
2017-09-05T11:17:56.365Z,41.4
2017-09-05T11:18:57.758Z,41.6
2017-09-05T11:19:59.174Z,39.1
2017-09-05T11:21:00.560Z,38.5
2017-09-05T11:22:01.959Z,39.7
2017-09-05T11:23:03.379Z,38.1
2017-09-05T11:24:04.752Z,37.6
2017-09-05T11:25:06.148Z,38.3
2017-09-05T11:26:07.547Z,38.1
2017-09-05T11:27:08.939Z,38.9
2017-09-05T11:28:10.338Z,38.6
2017-09-05T11:29:11.736Z,37.9
2017-09-05T11:30:13.135Z,37.0
2017-09-05T11:31:14.527Z,35.8
2017-09-05T11:32:15.922Z,36.7
2017-09-05T11:33:17.328Z,36.4
2017-09-05T11:34:18.714Z,37.1
2017-09-05T11:35:20.109Z,34.9
2017-09-05T11:36:21.506Z,34.9
2017-09-05T11:37:22.902Z,36.5
2017-09-05T11:38:24.321Z,35.8
2017-09-05T11:39:25.719Z,34.5
2017-09-05T11:40:27.123Z,36.6
2017-09-05T11:41:28.521Z,35.4
2017-09-05T11:42:29.916Z,35.7
2017-09-05T11:43:31.313Z,34.2
2017-09-05T11:44:32.708Z,34.4
2017-09-05T11:45:34.108Z,32.6
2017-09-05T11:46:35.507Z,32.4
2017-09-05T11:47:36.906Z,32.7
2017-09-05T11:48:38.306Z,31.7
2017-09-05T11:49:39.710Z,32.7
2017-09-05T11:50:41.116Z,34.3
2017-09-05T11:51:42.510Z,35.2
2017-09-05T11:52:43.898Z,36.6
2017-09-05T11:53:45.340Z,37.5
2017-09-05T11:54:46.704Z,38.7
2017-09-05T11:55:48.107Z,38.5
2017-09-05T11:56:49.514Z,38.8
2017-09-05T11:57:50.911Z,39.0
2017-09-05T11:59:33.303Z,39.9
2017-09-05T12:00:34.721Z,41.1
2017-09-05T12:01:36.109Z,40.1
2017-09-05T12:02:37.500Z,40.9
2017-09-05T12:03:38.899Z,40.6
2017-09-05T12:04:40.319Z,41.4
2017-09-05T12:05:41.687Z,42.0
2017-09-05T12:06:43.080Z,42.1
2017-09-05T12:07:44.483Z,42.2
2017-09-05T12:08:45.875Z,43.2
2017-09-05T12:09:47.270Z,44.4
2017-09-05T12:10:48.659Z,43.5
2017-09-05T12:11:50.056Z,43.2
2017-09-05T12:12:51.447Z,44.9
2017-09-05T12:13:52.841Z,43.5
2017-09-05T12:14:54.236Z,44.2
2017-09-05T12:15:55.662Z,46.3
2017-09-05T12:16:57.079Z,45.3
2017-09-05T12:17:58.471Z,45.1
2017-09-05T12:18:59.861Z,45.6
2017-09-05T12:20:01.248Z,45.5
2017-09-05T12:21:02.646Z,46.2
2017-09-05T12:22:04.046Z,46.1
2017-09-05T12:23:05.433Z,47.2
2017-09-05T12:24:06.821Z,47.3
2017-09-05T12:25:08.209Z,46.5
2017-09-05T12:26:09.610Z,46.7
2017-09-05T12:27:11.019Z,47.2
2017-09-05T12:28:12.394Z,47.6
2017-09-05T12:29:13.787Z,47.8
2017-09-05T12:30:15.183Z,47.4
2017-09-05T12:31:16.602Z,46.3
2017-09-05T12:32:58.996Z,44.6
2017-09-05T12:34:00.388Z,42.7
2017-09-05T12:35:01.776Z,42.2
2017-09-05T12:36:03.171Z,42.1
2017-09-05T12:37:04.561Z,41.8
2017-09-05T12:38:05.955Z,41.6
2017-09-05T12:39:07.351Z,41.7
2017-09-05T12:40:08.750Z,42.2
2017-09-05T12:41:10.136Z,42.8
2017-09-05T12:42:11.536Z,42.1
2017-09-05T12:43:12.927Z,42.3
2017-09-05T12:44:14.322Z,42.5
2017-09-05T12:45:15.710Z,42.4
2017-09-05T12:46:17.114Z,41.8
2017-09-05T12:47:18.497Z,43.1
2017-09-05T12:49:00.882Z,42.6
2017-09-05T12:50:02.273Z,42.8
2017-09-05T12:51:03.664Z,42.0
2017-09-05T12:52:05.078Z,42.2
2017-09-05T12:53:06.468Z,41.4
2017-09-05T12:54:07.862Z,41.7
2017-09-05T12:55:09.254Z,41.4
2017-09-05T12:56:10.647Z,41.5
2017-09-05T12:57:12.037Z,39.8
2017-09-05T12:58:13.430Z,38.6
2017-09-05T12:59:14.829Z,38.4
2017-09-05T13:00:16.230Z,40.6
2017-09-05T13:01:17.618Z,40.2
2017-09-05T13:02:19.013Z,39.3
2017-09-05T13:03:20.406Z,39.2
2017-09-05T13:04:21.798Z,39.2
2017-09-05T13:05:23.193Z,39.7
2017-09-05T13:06:24.589Z,39.3
2017-09-05T13:07:25.984Z,40.9
2017-09-05T13:08:27.379Z,41.3
2017-09-05T13:09:28.773Z,41.4
2017-09-05T13:10:30.196Z,41.2
2017-09-05T13:11:31.588Z,41.3
2017-09-05T13:12:33.026Z,42.0
2017-09-05T13:13:34.393Z,42.2
2017-09-05T13:14:35.793Z,41.8
2017-09-05T13:15:37.188Z,41.9
2017-09-05T13:16:38.638Z,43.0
2017-09-05T13:17:40.037Z,43.5
2017-09-05T13:18:41.419Z,43.3
2017-09-05T13:19:42.865Z,43.4
2017-09-05T13:20:44.307Z,43.7
2017-09-05T13:21:45.722Z,44.5
2017-09-05T13:22:47.111Z,44.8
2017-09-05T13:23:48.509Z,45.2
2017-09-05T13:24:49.921Z,44.9
2017-09-05T13:25:51.319Z,44.7
2017-09-05T13:26:52.707Z,45.1
2017-09-05T13:27:54.149Z,45.1
2017-09-05T13:28:55.540Z,45.0
2017-09-05T13:29:56.943Z,45.4
2017-09-05T13:30:58.334Z,45.9
2017-09-05T13:31:59.740Z,46.3
2017-09-05T13:33:01.148Z,46.5
2017-09-05T13:34:02.577Z,46.5
2017-09-05T13:35:03.973Z,46.8
2017-09-05T13:36:46.350Z,47.3
2017-09-05T13:37:47.797Z,47.0
2017-09-05T13:38:49.195Z,47.5
2017-09-05T13:39:50.583Z,47.8
2017-09-05T13:40:51.973Z,48.2
2017-09-05T13:41:53.372Z,49.5
2017-09-05T13:42:54.756Z,49.6
2017-09-05T13:43:56.151Z,48.8
2017-09-05T13:44:57.529Z,49.4
2017-09-05T13:45:58.922Z,49.9
2017-09-05T13:47:00.304Z,49.4
2017-09-05T13:48:01.701Z,49.3
2017-09-05T13:49:03.095Z,49.3
2017-09-05T13:50:04.475Z,49.3
2017-09-05T13:51:05.865Z,49.6
2017-09-05T13:52:07.249Z,49.5
2017-09-05T13:53:08.632Z,50.0
2017-09-05T13:54:10.019Z,50.6
2017-09-05T13:55:11.406Z,50.0
2017-09-05T13:56:12.793Z,50.6
2017-09-05T13:57:14.180Z,50.5